Time;durP1;ratioP1;P1;durP2;ratioP2;P2;SDS_P1;SDS_P2;PMS_P1;PMS_P2;Temp;Humidity;BMP_temperature;BMP_pressure;BME280_temperature;BME280_humidity;BME280_pressure;Samples;Min_cycle;Max_cycle;Signal;HPM_P1;HPM_P2
2023/08/26 00:00:48;;;;;;;15.93;12.60;;;;;;;22.18;83.57;97622.31;4895096;29;20017;-69
2023/08/26 00:03:14;;;;;;;13.13;11.68;;;;;;;22.22;83.63;97623.25;4901818;29;20514;-70
2023/08/26 00:05:39;;;;;;;13.38;12.05;;;;;;;22.20;83.88;97620.84;4886815;29;20033;-71
2023/08/26 00:08:05;;;;;;;14.82;12.38;;;;;;;22.14;83.37;97604.91;4880037;29;20124;-71
2023/08/26 00:10:30;;;;;;;12.05;10.85;;;;;;;22.20;83.51;97625.50;4880808;29;20026;-70
2023/08/26 00:12:56;;;;;;;13.43;11.57;;;;;;;22.17;83.58;97610.53;4880640;29;20234;-70
2023/08/26 00:15:22;;;;;;;14.77;12.18;;;;;;;22.03;83.57;97583.34;4880805;29;20021;-74
2023/08/26 00:17:47;;;;;;;16.90;11.88;;;;;;;22.15;83.65;97617.50;4880564;29;20045;-72
2023/08/26 00:20:13;;;;;;;14.65;11.98;;;;;;;22.07;83.80;97610.13;4895006;29;20025;-70
2023/08/26 00:22:38;;;;;;;15.25;11.52;;;;;;;22.03;83.57;97620.97;4880454;29;20116;-69
2023/08/26 00:25:06;;;;;;;14.88;11.40;;;;;;;21.94;83.77;97607.28;4894966;29;20100;-70
2023/08/26 00:27:31;;;;;;;13.68;12.23;;;;;;;22.07;83.46;97632.06;4880564;29;20040;-69
2023/08/26 00:29:56;;;;;;;19.83;13.15;;;;;;;21.95;83.71;97630.84;4895127;29;20033;-72
2023/08/26 00:32:24;;;;;;;16.08;13.82;;;;;;;21.97;83.43;97645.03;4880666;29;20120;-71
2023/08/26 00:34:49;;;;;;;16.42;13.00;;;;;;;21.83;84.19;97638.94;4895293;29;20128;-71
2023/08/26 00:37:14;;;;;;;15.18;13.10;;;;;;;21.92;84.40;97647.97;4895537;29;20061;-70
2023/08/26 00:39:40;;;;;;;16.33;12.90;;;;;;;21.94;84.56;97642.94;4882769;29;20032;-69
2023/08/26 00:42:05;;;;;;;15.88;13.05;;;;;;;21.93;84.93;97649.56;4880186;29;20080;-72
2023/08/26 00:44:31;;;;;;;18.88;13.52;;;;;;;21.83;84.91;97636.22;4894856;29;20108;-73
2023/08/26 00:46:57;;;;;;;17.08;14.10;;;;;;;21.90;85.24;97636.53;4894921;29;20052;-70
2023/08/26 00:49:22;;;;;;;16.80;13.95;;;;;;;21.94;85.09;97640.19;4894607;29;20033;-72
2023/08/26 00:51:47;;;;;;;18.25;13.98;;;;;;;21.95;84.98;97652.78;4894589;29;20045;-73
2023/08/26 00:54:13;;;;;;;16.95;14.00;;;;;;;21.97;85.15;97657.94;4894793;29;20032;-74
2023/08/26 00:56:38;;;;;;;17.17;13.82;;;;;;;22.00;85.13;97655.34;4894930;29;20466;-72
2023/08/26 00:59:04;;;;;;;20.55;14.63;;;;;;;21.98;85.23;97654.84;4864017;29;20500;-73
2023/08/26 01:01:31;;;;;;;16.13;13.68;;;;;;;22.08;85.28;97656.41;4879271;29;20033;-73
2023/08/26 01:03:56;;;;;;;19.10;14.65;;;;;;;22.01;85.45;97656.13;4908703;29;20028;-72
2023/08/26 01:06:22;;;;;;;17.45;14.77;;;;;;;22.00;85.49;97687.44;4894877;29;20435;-72
2023/08/26 01:08:47;;;;;;;21.50;16.00;;;;;;;21.91;85.96;97679.25;4894156;29;20136;-71
2023/08/26 01:11:23;;;;;;;16.73;14.88;;;;;;;21.91;85.89;97664.75;4881364;29;20060;-73
2023/08/26 01:14:14;;;;;;;22.85;16.85;;;;;;;22.00;85.92;97660.84;4878528;29;20043;-73
2023/08/26 01:16:40;;;;;;;22.45;16.20;;;;;;;22.00;86.28;97655.34;4894114;29;20040;-71
2023/08/26 01:19:08;;;;;;;19.40;15.88;;;;;;;22.07;86.23;97667.72;4862872;29;20029;-70
2023/08/26 01:21:38;;;;;;;26.17;16.08;;;;;;;22.00;86.07;97666.31;4893451;29;20037;-73
2023/08/26 01:24:05;;;;;;;21.35;17.13;;;;;;;22.02;86.44;97679.69;4893222;29;20048;-70
2023/08/26 01:26:30;;;;;;;22.38;16.35;;;;;;;22.06;86.41;97675.13;4893376;29;20403;-70
2023/08/26 01:28:55;;;;;;;20.80;15.93;;;;;;;22.10;86.44;97675.28;4862175;29;20033;-73
2023/08/26 01:31:21;;;;;;;18.77;15.30;;;;;;;22.17;86.18;97665.38;4893052;29;20081;-73
2023/08/26 01:34:09;;;;;;;20.83;16.10;;;;;;;22.22;86.29;97645.22;4859002;29;20048;-74
2023/08/26 01:36:38;;;;;;;27.17;18.77;;;;;;;22.18;86.29;97645.06;4872486;29;20124;-73
2023/08/26 01:39:04;;;;;;;27.88;19.50;;;;;;;22.14;86.29;97638.63;4885326;29;20498;-71
2023/08/26 01:41:29;;;;;;;19.88;17.40;;;;;;;22.13;86.34;97636.22;4888663;29;20119;-71
2023/08/26 01:43:55;;;;;;;22.90;18.17;;;;;;;22.13;86.40;97648.00;4861924;29;20068;-73
2023/08/26 01:46:33;;;;;;;24.00;19.55;;;;;;;22.02;86.62;97647.59;4893024;29;20059;-70
2023/08/26 01:48:59;;;;;;;25.75;19.95;;;;;;;22.07;86.79;97637.56;4892996;29;20486;-70
2023/08/26 01:51:24;;;;;;;24.98;19.55;;;;;;;22.09;86.71;97646.25;4892105;29;20037;-71
2023/08/26 01:53:49;;;;;;;25.58;19.80;;;;;;;22.08;86.76;97639.94;4892760;29;20037;-71
2023/08/26 01:56:15;;;;;;;25.55;21.38;;;;;;;22.05;86.93;97645.31;4879416;29;20402;-70
2023/08/26 01:58:41;;;;;;;27.75;22.15;;;;;;;21.96;87.21;97637.16;4892767;29;20045;-69
2023/08/26 02:01:06;;;;;;;26.65;21.25;;;;;;;21.94;87.75;97650.34;4892283;29;20444;-70
2023/08/26 02:03:32;;;;;;;26.15;20.85;;;;;;;21.98;87.82;97652.09;4901533;29;20049;-69
2023/08/26 02:05:57;;;;;;;27.52;21.70;;;;;;;21.99;87.65;97653.72;4880311;29;20048;-68
2023/08/26 02:08:22;;;;;;;26.02;21.13;;;;;;;21.90;88.12;97655.72;4877025;29;20559;-70
2023/08/26 02:10:58;;;;;;;29.85;22.45;;;;;;;21.84;87.87;97645.28;4892358;29;20093;-68
2023/08/26 02:13:24;;;;;;;27.15;21.58;;;;;;;21.93;88.16;97655.06;4892580;29;20041;-68
2023/08/26 02:15:50;;;;;;;27.65;21.83;;;;;;;21.90;88.27;97660.38;4892330;29;20049;-68
2023/08/26 02:18:15;;;;;;;29.40;22.42;;;;;;;21.66;88.44;97643.69;4882305;29;20045;-71
2023/08/26 02:20:42;;;;;;;30.25;23.33;;;;;;;21.75;88.31;97636.25;4890069;29;20021;-69
2023/08/26 02:23:09;;;;;;;31.42;24.02;;;;;;;21.90;88.13;97666.69;4892112;29;20041;-69
2023/08/26 02:25:34;;;;;;;32.58;23.65;;;;;;;21.81;88.56;97679.59;4879653;29;20040;-68
2023/08/26 02:28:00;;;;;;;31.77;24.05;;;;;;;21.82;88.71;97678.44;4867000;29;20053;-68
2023/08/26 02:30:25;;;;;;;31.23;22.13;;;;;;;21.80;88.74;97680.72;4886050;29;20026;-69
2023/08/26 02:32:51;;;;;;;28.50;21.63;;;;;;;21.58;88.72;97656.31;4883048;29;20060;-68
2023/08/26 02:35:16;;;;;;;29.08;22.65;;;;;;;21.65;88.95;97675.81;4892143;29;20032;-68
2023/08/26 02:37:43;;;;;;;29.42;23.48;;;;;;;21.68;89.06;97688.84;4892163;29;20041;-69
2023/08/26 02:40:08;;;;;;;30.73;23.45;;;;;;;21.70;89.19;97689.34;4879646;29;20053;-69
2023/08/26 02:42:34;;;;;;;30.40;23.50;;;;;;;21.63;89.44;97700.00;4891725;29;20600;-69
2023/08/26 02:45:00;;;;;;;27.35;20.88;;;;;;;21.65;89.70;97697.72;4891967;29;20033;-70
2023/08/26 02:47:25;;;;;;;23.10;18.20;;;;;;;21.62;89.51;97703.84;4892044;29;20075;-68
2023/08/26 02:49:51;;;;;;;26.33;19.80;;;;;;;21.60;89.51;97695.16;4865304;29;20112;-68
2023/08/26 02:52:16;;;;;;;27.38;21.17;;;;;;;21.63;89.49;97691.78;4877433;29;20041;-67
2023/08/26 02:54:42;;;;;;;20.88;17.77;;;;;;;21.75;89.13;97674.63;4891740;29;20029;-69
2023/08/26 02:57:07;;;;;;;25.95;20.83;;;;;;;21.76;89.16;97682.53;4891929;29;20513;-68
2023/08/26 02:59:32;;;;;;;26.98;21.60;;;;;;;21.67;89.70;97703.69;4891777;29;20084;-68
2023/08/26 03:02:01;;;;;;;25.77;19.75;;;;;;;21.68;89.43;97694.31;4860167;29;20041;-68
2023/08/26 03:04:26;;;;;;;25.20;21.20;;;;;;;21.61;89.67;97707.72;4877587;29;20024;-68
2023/08/26 03:06:51;;;;;;;28.55;20.88;;;;;;;21.57;89.89;97709.50;4891672;29;20036;-68
2023/08/26 03:09:17;;;;;;;30.63;22.00;;;;;;;21.58;89.81;97700.19;4875911;29;20039;-68
2023/08/26 03:11:42;;;;;;;28.00;21.65;;;;;;;21.59;89.87;97693.53;4891610;29;20041;-69
2023/08/26 03:14:07;;;;;;;38.22;23.27;;;;;;;21.47;90.52;97718.06;4891589;29;20044;-68
2023/08/26 03:16:33;;;;;;;33.65;23.17;;;;;;;21.42;90.72;97721.00;4891596;29;20040;-69
2023/08/26 03:18:58;;;;;;;32.70;22.55;;;;;;;21.42;90.81;97696.34;4876060;29;20033;-69
2023/08/26 03:21:24;;;;;;;27.75;21.85;;;;;;;21.38;90.96;97687.16;4891347;29;20128;-68
2023/08/26 03:23:51;;;;;;;27.95;21.90;;;;;;;21.39;90.79;97694.25;4891512;29;20040;-69
2023/08/26 03:26:16;;;;;;;32.38;23.92;;;;;;;21.39;90.98;97697.00;4883050;29;20046;-69
2023/08/26 03:28:42;;;;;;;30.15;23.02;;;;;;;21.36;91.36;97694.91;4887818;29;20057;-68
2023/08/26 03:31:07;;;;;;;31.33;22.48;;;;;;;21.33;91.28;97714.75;4894439;29;20048;-68
2023/08/26 03:33:34;;;;;;;31.65;23.15;;;;;;;21.28;91.51;97725.88;4895150;29;20048;-69
2023/08/26 03:36:04;;;;;;;38.58;23.33;;;;;;;21.18;91.79;97710.59;4895279;29;20487;-68
2023/08/26 03:38:30;;;;;;;39.95;26.15;;;;;;;21.28;91.61;97701.22;4879616;29;20473;-69
2023/08/26 03:40:55;;;;;;;42.25;25.02;;;;;;;21.31;91.63;97714.25;4895153;29;20049;-69
2023/08/26 03:43:21;;;;;;;26.95;20.27;;;;;;;21.26;91.88;97711.72;4894901;29;20093;-70
2023/08/26 03:45:46;;;;;;;35.65;25.20;;;;;;;21.23;91.68;97706.88;4895163;29;20048;-68
2023/08/26 03:48:12;;;;;;;30.50;21.55;;;;;;;21.32;91.48;97713.13;4878685;29;20040;-68
2023/08/26 03:50:37;;;;;;;30.33;22.38;;;;;;;21.32;91.02;97715.88;4884599;29;20091;-70
2023/08/26 03:53:03;;;;;;;26.85;20.95;;;;;;;21.37;91.21;97702.00;4879103;29;20032;-69
2023/08/26 03:55:32;;;;;;;28.98;22.13;;;;;;;21.43;91.11;97711.66;4863890;29;20043;-69
2023/08/26 03:57:57;;;;;;;28.58;21.13;;;;;;;21.33;91.51;97717.50;4879192;29;20036;-70
2023/08/26 04:00:23;;;;;;;27.38;20.98;;;;;;;21.34;91.23;97719.91;4894835;29;20399;-72
2023/08/26 04:02:48;;;;;;;30.13;21.08;;;;;;;21.30;91.28;97727.16;4880333;29;20029;-70
2023/08/26 04:05:14;;;;;;;30.58;22.58;;;;;;;21.29;91.51;97732.94;4870972;29;20041;-70
2023/08/26 04:07:39;;;;;;;25.98;20.65;;;;;;;21.31;91.63;97727.94;4892002;29;20069;-71
2023/08/26 04:10:06;;;;;;;28.58;20.95;;;;;;;21.23;91.93;97731.53;4863577;29;20037;-71
2023/08/26 04:12:31;;;;;;;25.83;19.75;;;;;;;21.16;91.94;97706.56;4878658;29;20467;-71
2023/08/26 04:14:56;;;;;;;24.55;17.58;;;;;;;21.23;91.72;97706.88;4894708;29;20132;-72
2023/08/26 04:17:22;;;;;;;22.75;17.38;;;;;;;21.20;91.80;97710.25;4894572;29;20074;-73
2023/08/26 04:19:47;;;;;;;20.83;17.50;;;;;;;21.14;91.50;97700.59;4894489;29;20041;-71
2023/08/26 04:22:13;;;;;;;21.85;16.85;;;;;;;21.15;91.68;97707.66;4880140;29;20668;-73
2023/08/26 04:24:38;;;;;;;26.17;17.35;;;;;;;21.17;91.46;97713.63;4880275;29;20078;-72
2023/08/26 04:27:04;;;;;;;21.50;16.13;;;;;;;21.09;91.65;97711.72;4880134;29;20059;-70
2023/08/26 04:29:30;;;;;;;18.58;14.77;;;;;;;21.00;91.90;97719.13;4885148;29;20089;-73
2023/08/26 04:31:56;;;;;;;16.33;14.05;;;;;;;20.93;92.13;97719.59;4876505;29;20033;-72
2023/08/26 04:34:22;;;;;;;17.65;14.40;;;;;;;20.98;92.11;97722.16;4894563;29;20090;-72
2023/08/26 04:36:48;;;;;;;19.20;15.45;;;;;;;20.98;92.00;97726.84;4894322;29;20067;-71
2023/08/26 04:39:13;;;;;;;19.27;14.63;;;;;;;20.95;92.23;97732.97;4894170;29;20033;-69
2023/08/26 04:41:39;;;;;;;24.08;15.93;;;;;;;20.83;92.43;97714.44;4892521;29;20049;-70
2023/08/26 04:44:07;;;;;;;20.05;15.65;;;;;;;20.92;92.35;97722.66;4893855;29;20657;-72
2023/08/26 04:46:33;;;;;;;17.13;12.95;;;;;;;20.91;92.70;97726.53;4894017;29;20119;-71
2023/08/26 04:48:58;;;;;;;17.98;13.80;;;;;;;20.90;92.66;97724.91;4894076;29;20456;-71
2023/08/26 04:51:24;;;;;;;21.92;16.20;;;;;;;20.94;92.61;97728.59;4893660;29;20555;-69
2023/08/26 04:53:50;;;;;;;20.20;14.55;;;;;;;20.92;92.69;97730.84;4893816;29;20044;-70
2023/08/26 04:56:15;;;;;;;20.58;16.13;;;;;;;20.86;92.37;97724.75;4893684;29;20092;-71
2023/08/26 04:58:40;;;;;;;17.42;14.88;;;;;;;20.92;92.69;97747.28;4893704;29;20039;-72
2023/08/26 05:01:06;;;;;;;22.38;16.80;;;;;;;20.88;92.70;97738.13;4893568;29;20100;-72
2023/08/26 05:03:32;;;;;;;19.90;15.15;;;;;;;20.93;92.58;97746.16;4893798;29;20519;-71
2023/08/26 05:05:58;;;;;;;19.08;14.45;;;;;;;20.87;92.54;97752.91;4881027;29;20045;-69
2023/08/26 05:08:23;;;;;;;18.42;13.98;;;;;;;20.97;92.50;97760.81;4884397;29;20678;-72
2023/08/26 05:10:49;;;;;;;20.33;15.18;;;;;;;20.87;92.35;97747.44;4890295;29;21628;-72
2023/08/26 05:13:14;;;;;;;17.85;12.48;;;;;;;21.02;92.07;97768.88;4890884;29;20025;-73
2023/08/26 05:15:39;;;;;;;33.33;25.33;;;;;;;21.06;91.94;97764.38;4876658;29;20476;-70
2023/08/26 05:18:05;;;;;;;36.53;27.38;;;;;;;21.03;92.05;97767.72;4892774;29;20032;-72
2023/08/26 05:20:30;;;;;;;109.20;75.60;;;;;;;21.16;91.95;97766.81;4893120;29;20028;-70
2023/08/26 05:22:56;;;;;;;93.65;60.67;;;;;;;21.11;92.13;97764.22;4892959;29;20045;-71
2023/08/26 05:25:21;;;;;;;97.22;60.15;;;;;;;21.16;92.11;97772.28;4878780;29;20055;-71
2023/08/26 05:27:47;;;;;;;114.90;71.30;;;;;;;21.14;91.80;97769.84;4885309;29;20082;-69
2023/08/26 05:30:16;;;;;;;135.52;85.00;;;;;;;21.08;92.23;97773.09;4889641;29;20025;-71
2023/08/26 05:32:47;;;;;;;145.38;102.97;;;;;;;21.11;92.03;97786.94;4893118;29;20419;-72
2023/08/26 05:35:13;;;;;;;108.72;74.97;;;;;;;21.21;92.08;97788.56;4893079;29;20033;-71
2023/08/26 05:37:43;;;;;;;106.90;62.03;;;;;;;21.22;92.11;97796.44;4893210;29;20055;-71
2023/08/26 05:40:09;;;;;;;176.20;95.88;;;;;;;21.30;91.47;97795.66;4893126;29;20044;-72
2023/08/26 05:42:34;;;;;;;47.47;28.58;;;;;;;21.33;91.35;97796.94;4877111;29;20542;-71
2023/08/26 05:45:01;;;;;;;41.83;30.50;;;;;;;21.30;91.47;97789.34;4892949;29;20036;-71
2023/08/26 05:47:26;;;;;;;29.35;21.80;;;;;;;21.38;91.32;97796.75;4877372;29;20055;-72
2023/08/26 05:49:52;;;;;;;18.50;15.45;;;;;;;21.49;90.96;97802.72;4892716;29;20068;-70
2023/08/26 05:52:17;;;;;;;23.30;19.02;;;;;;;21.37;90.80;97784.19;4892173;29;20036;-72
2023/08/26 05:54:43;;;;;;;22.40;15.85;;;;;;;21.45;90.99;97801.75;4892815;29;20036;-72
2023/08/26 05:57:10;;;;;;;15.57;13.98;;;;;;;21.42;90.47;97792.25;4892904;29;20116;-74
2023/08/26 05:59:36;;;;;;;20.20;16.05;;;;;;;21.49;90.68;97803.53;4889645;29;20495;-73
2023/08/26 06:02:01;;;;;;;17.30;14.85;;;;;;;21.50;90.97;97810.59;4883668;29;20033;-71
2023/08/26 06:04:27;;;;;;;18.58;14.60;;;;;;;21.50;90.65;97810.59;4892595;29;20518;-71
2023/08/26 06:06:53;;;;;;;21.88;15.75;;;;;;;21.40;91.18;97805.44;4892531;29;20036;-74
2023/08/26 06:09:18;;;;;;;18.08;13.77;;;;;;;21.48;91.05;97823.00;4892305;29;20028;-73
2023/08/26 06:11:44;;;;;;;20.00;14.38;;;;;;;21.35;90.86;97797.41;4861363;29;20040;-73
2023/08/26 06:14:10;;;;;;;25.25;15.77;;;;;;;21.39;90.87;97814.81;4861448;29;20041;-75
2023/08/26 06:16:35;;;;;;;19.80;13.82;;;;;;;21.56;90.80;97831.25;4892424;29;20052;-76
2023/08/26 06:19:01;;;;;;;19.38;12.50;;;;;;;21.48;90.65;97829.31;4878478;29;20041;-77
2023/08/26 06:21:26;;;;;;;17.10;12.38;;;;;;;21.50;90.92;97843.50;4877033;29;20046;-76
2023/08/26 06:23:51;;;;;;;15.20;12.10;;;;;;;21.38;91.01;97829.63;4892346;29;20044;-76
2023/08/26 06:26:17;;;;;;;18.08;12.05;;;;;;;21.40;91.34;97843.03;4861736;29;20080;-76
2023/08/26 06:28:43;;;;;;;15.77;12.25;;;;;;;21.34;91.54;97840.44;4876100;29;20128;-74
2023/08/26 06:31:08;;;;;;;16.60;11.77;;;;;;;21.29;91.62;97839.78;4892230;29;20032;-76
2023/08/26 06:33:41;;;;;;;17.63;12.05;;;;;;;21.43;91.21;97843.16;4876740;29;20431;-76
2023/08/26 06:36:08;;;;;;;16.15;11.85;;;;;;;21.31;91.43;97832.84;4876624;29;20052;-77
2023/08/26 06:38:33;;;;;;;17.67;11.52;;;;;;;21.44;91.17;97828.34;4876627;29;20037;-75
2023/08/26 06:40:59;;;;;;;16.75;12.32;;;;;;;21.54;91.23;97838.97;4892117;29;20115;-72
2023/08/26 06:43:24;;;;;;;14.75;11.63;;;;;;;21.50;91.38;97816.09;4892137;29;20029;-75
2023/08/26 06:45:50;;;;;;;15.60;10.73;;;;;;;21.63;90.49;97831.56;4892167;29;20073;-76
2023/08/26 06:48:16;;;;;;;18.27;11.45;;;;;;;21.62;90.64;97824.47;4876365;29;20056;-76
2023/08/26 06:50:47;;;;;;;14.63;12.05;;;;;;;21.76;89.66;97837.97;4891814;29;20107;-76
2023/08/26 06:53:12;;;;;;;17.45;11.82;;;;;;;21.77;89.94;97840.41;4891739;29;20045;-75
2023/08/26 06:55:38;;;;;;;18.52;13.35;;;;;;;21.63;90.05;97837.03;4877626;29;20040;-76
2023/08/26 06:58:03;;;;;;;16.40;11.25;;;;;;;21.60;90.01;97826.72;4877615;29;20142;-72
2023/08/26 07:00:29;;;;;;;15.43;11.82;;;;;;;21.50;90.25;97809.78;4868204;29;20025;-72
2023/08/26 07:02:54;;;;;;;14.07;11.30;;;;;;;21.71;90.30;97849.09;4877994;29;20117;-72
2023/08/26 07:05:19;;;;;;;14.98;10.50;;;;;;;21.69;89.86;97851.38;4884800;29;20060;-74
2023/08/26 07:07:45;;;;;;;15.27;10.70;;;;;;;21.57;89.89;97852.03;4889322;29;20130;-72
2023/08/26 07:10:10;;;;;;;14.55;9.60;;;;;;;21.61;89.49;97847.50;4876319;29;20041;-74
2023/08/26 07:12:36;;;;;;;14.23;10.57;;;;;;;21.66;88.50;97830.88;4873115;29;20124;-75
2023/08/26 07:15:02;;;;;;;17.58;10.85;;;;;;;21.81;88.21;97849.59;4883554;29;20029;-73
2023/08/26 07:17:28;;;;;;;16.90;10.82;;;;;;;21.91;87.86;97854.75;4891572;29;20079;-72
2023/08/26 07:19:53;;;;;;;16.02;10.38;;;;;;;21.98;88.02;97868.75;4877456;29;20053;-71
2023/08/26 07:22:19;;;;;;;12.45;8.93;;;;;;;22.09;87.71;97865.69;4877039;29;20399;-71
2023/08/26 07:24:45;;;;;;;11.38;8.63;;;;;;;22.12;87.05;97865.03;4877056;29;20025;-72
2023/08/26 07:27:10;;;;;;;13.02;8.75;;;;;;;22.06;86.54;97874.56;4877543;29;20547;-73
2023/08/26 07:29:37;;;;;;;14.55;9.70;;;;;;;22.23;86.60;97878.06;4891504;29;20049;-71
2023/08/26 07:32:03;;;;;;;11.05;8.68;;;;;;;22.31;85.65;97862.72;4876759;29;20041;-73
2023/08/26 07:34:28;;;;;;;13.05;8.95;;;;;;;22.43;84.59;97876.53;4891275;29;20479;-73
2023/08/26 07:36:53;;;;;;;11.88;9.10;;;;;;;22.61;83.96;97878.13;4875510;29;20077;-73
2023/08/26 07:39:20;;;;;;;14.30;7.95;;;;;;;22.71;83.55;97888.72;4877069;29;20029;-74
2023/08/26 07:41:46;;;;;;;11.30;7.57;;;;;;;22.59;82.30;97869.38;4860774;29;20048;-73
2023/08/26 07:44:12;;;;;;;11.70;7.45;;;;;;;22.73;82.40;97888.41;4891366;29;20085;-73
2023/08/26 07:46:37;;;;;;;10.95;7.50;;;;;;;22.80;82.01;97886.72;4877055;29;20033;-72
2023/08/26 07:49:03;;;;;;;14.65;7.07;;;;;;;22.77;81.39;97870.94;4891481;29;20483;-73
2023/08/26 07:51:28;;;;;;;12.10;6.75;;;;;;;22.90;80.96;97880.88;4875518;29;20534;-73
2023/08/26 07:53:53;;;;;;;8.32;5.85;;;;;;;22.80;79.17;97881.22;4875678;29;20041;-73
2023/08/26 07:56:19;;;;;;;12.85;6.47;;;;;;;22.81;78.39;97866.38;4891342;29;20052;-73
2023/08/26 07:58:44;;;;;;;9.85;5.88;;;;;;;22.96;78.52;97882.31;4891316;29;20671;-73
2023/08/26 08:01:09;;;;;;;12.82;5.88;;;;;;;22.95;78.15;97880.69;4875620;29;20045;-73
2023/08/26 08:03:35;;;;;;;7.90;5.65;;;;;;;23.16;77.20;97877.97;4886290;29;20024;-73
2023/08/26 08:06:00;;;;;;;9.75;5.70;;;;;;;23.15;76.64;97885.38;4879061;29;20041;-73
2023/08/26 08:08:26;;;;;;;10.45;5.68;;;;;;;23.19;76.18;97891.84;4882481;29;20034;-73
2023/08/26 08:10:51;;;;;;;10.82;6.13;;;;;;;23.36;76.40;97883.50;4887453;29;20499;-73
2023/08/26 08:13:16;;;;;;;7.82;6.05;;;;;;;23.62;76.20;97875.03;4891168;29;20103;-75
2023/08/26 08:15:42;;;;;;;8.77;5.25;;;;;;;23.66;75.32;97875.19;4876474;29;20049;-73
2023/08/26 08:18:07;;;;;;;8.00;5.07;;;;;;;23.13;72.96;97868.44;4880261;29;20028;-73
2023/08/26 08:20:32;;;;;;;9.70;4.88;;;;;;;23.07;72.34;97894.50;4867740;29;20036;-71
2023/08/26 08:22:58;;;;;;;8.98;5.03;;;;;;;23.22;72.16;97893.91;4879898;29;20135;-71
2023/08/26 08:25:24;;;;;;;9.52;5.15;;;;;;;23.30;71.92;97884.81;4880062;29;20041;-70
2023/08/26 08:27:49;;;;;;;8.98;5.63;;;;;;;23.32;72.39;97888.03;4894367;29;20679;-70
2023/08/26 08:30:15;;;;;;;7.22;5.45;;;;;;;23.18;72.98;97862.75;4894343;29;20066;-71
2023/08/26 08:32:40;;;;;;;8.55;5.18;;;;;;;23.21;73.35;97875.84;4879650;29;20399;-71
2023/08/26 08:35:06;;;;;;;6.72;5.40;;;;;;;23.02;73.14;97875.47;4894279;29;20049;-70
2023/08/26 08:37:32;;;;;;;6.63;5.22;;;;;;;22.83;73.59;97875.09;4885436;29;20057;-70
2023/08/26 08:39:57;;;;;;;10.50;4.80;;;;;;;23.01;73.14;97871.09;4890606;29;20108;-70
2023/08/26 08:42:22;;;;;;;8.95;5.40;;;;;;;23.23;73.32;97872.75;4878278;29;20044;-71
2023/08/26 08:44:48;;;;;;;9.15;5.43;;;;;;;23.46;72.73;97870.47;4894299;29;20133;-71
2023/08/26 08:47:14;;;;;;;7.25;4.32;;;;;;;23.37;71.23;97845.81;4878709;29;20498;-71
2023/08/26 08:49:41;;;;;;;6.40;4.60;;;;;;;23.45;71.17;97868.91;4893781;29;20044;-70
2023/08/26 08:52:07;;;;;;;9.68;4.88;;;;;;;23.38;70.70;97863.94;4878235;29;20088;-70
2023/08/26 08:54:34;;;;;;;6.95;4.32;;;;;;;23.34;69.85;97863.78;4878294;29;20072;-72
2023/08/26 08:57:00;;;;;;;7.88;4.07;;;;;;;23.28;69.28;97854.13;4893904;29;20025;-70
2023/08/26 08:59:29;;;;;;;8.43;4.43;;;;;;;23.20;68.31;97868.72;4893804;29;20414;-70
2023/08/26 09:01:56;;;;;;;6.00;4.10;;;;;;;23.19;68.57;97856.13;4878415;29;20029;-71
2023/08/26 09:04:22;;;;;;;7.22;3.97;;;;;;;23.06;68.01;97850.88;4890711;29;20499;-72
2023/08/26 09:06:48;;;;;;;8.18;4.00;;;;;;;23.16;67.60;97856.78;4875039;29;20031;-70
2023/08/26 09:09:15;;;;;;;7.05;4.30;;;;;;;23.11;67.42;97865.22;4875830;29;20044;-71
2023/08/26 09:11:40;;;;;;;9.20;4.03;;;;;;;23.27;67.85;97858.00;4879087;29;20033;-73
2023/08/26 09:14:06;;;;;;;7.28;3.97;;;;;;;23.16;67.15;97854.03;4893523;29;20059;-74
2023/08/26 09:16:36;;;;;;;6.30;3.75;;;;;;;23.23;66.86;97868.06;4893624;29;20115;-72
2023/08/26 09:19:02;;;;;;;7.40;3.83;;;;;;;23.38;65.68;97857.63;4877912;29;20411;-71
2023/08/26 09:21:28;;;;;;;9.32;4.15;;;;;;;23.49;65.70;97820.34;4877924;29;20081;-72
2023/08/26 09:23:54;;;;;;;7.72;4.22;;;;;;;23.64;66.01;97834.25;4874554;29;20132;-73
2023/08/26 09:26:22;;;;;;;8.90;4.28;;;;;;;23.77;65.89;97843.38;4869418;29;20032;-74
2023/08/26 09:28:50;;;;;;;9.30;4.47;;;;;;;23.77;66.04;97854.38;4892712;29;20246;-73
2023/08/26 09:31:15;;;;;;;12.82;4.85;;;;;;;;;;4874433;29;20033;-73
2023/08/26 09:33:41;;;;;;;10.05;4.70;;;;;;;23.77;66.23;97860.69;4891823;29;20047;-73
2023/08/26 09:36:06;;;;;;;7.55;4.43;;;;;;;23.83;64.62;97837.31;4877855;29;20036;-73
2023/08/26 09:38:47;;;;;;;9.40;5.05;;;;;;;24.07;63.69;97858.63;4877929;29;20553;-72
2023/08/26 09:41:19;;;;;;;9.57;4.63;;;;;;;24.33;64.63;97859.13;4877649;29;20037;-73
2023/08/26 09:43:45;;;;;;;8.48;4.65;;;;;;;24.51;63.31;97851.47;4877555;29;20037;-73
2023/08/26 09:46:20;;;;;;;9.02;4.68;;;;;;;24.54;62.11;97859.84;4893404;29;20116;-73
2023/08/26 09:48:47;;;;;;;8.88;4.45;;;;;;;24.41;62.58;97858.22;4877812;29;20045;-73
2023/08/26 09:51:23;;;;;;;10.30;4.35;;;;;;;24.31;62.00;97858.69;4878605;29;20033;-73
2023/08/26 09:53:49;;;;;;;11.25;4.90;;;;;;;24.32;63.43;97838.25;4877651;29;20097;-73
2023/08/26 09:56:15;;;;;;;8.32;4.40;;;;;;;24.48;62.52;97861.22;4877754;29;20352;-73
2023/08/26 09:58:41;;;;;;;6.63;3.85;;;;;;;24.45;62.79;97826.13;4893149;29;20053;-72
2023/08/26 10:01:06;;;;;;;8.80;4.53;;;;;;;24.86;63.81;97840.81;4877279;29;20539;-73
2023/08/26 10:03:32;;;;;;;10.73;4.40;;;;;;;25.01;62.12;97851.16;4862098;29;20056;-73
2023/08/26 10:05:59;;;;;;;8.95;4.40;;;;;;;24.58;60.53;97830.47;4893200;29;20244;-73
2023/08/26 10:08:28;;;;;;;8.90;4.40;;;;;;;24.48;62.13;97847.44;4877317;29;20082;-72
2023/08/26 10:10:55;;;;;;;11.93;4.63;;;;;;;24.63;62.27;97838.50;4892377;29;20033;-72
2023/08/26 10:13:22;;;;;;;8.98;4.25;;;;;;;24.67;62.00;97828.41;4876903;29;20542;-71
2023/08/26 10:15:52;;;;;;;7.47;4.20;;;;;;;24.94;61.88;97831.63;4892612;29;20025;-72
2023/08/26 10:18:26;;;;;;;9.98;4.15;;;;;;;25.20;61.49;97835.63;4892404;29;20041;-72
2023/08/26 10:20:52;;;;;;;8.07;4.15;;;;;;;25.12;61.69;97846.75;4877985;29;20044;-72
2023/08/26 10:23:18;;;;;;;9.40;4.30;;;;;;;25.05;61.38;97817.03;4892008;29;20265;-73
2023/08/26 10:25:44;;;;;;;6.35;3.83;;;;;;;24.98;60.92;97838.84;4878000;29;20480;-72
2023/08/26 10:28:11;;;;;;;6.57;4.07;;;;;;;25.21;61.61;97830.88;4892490;29;20024;-72
2023/08/26 10:30:36;;;;;;;6.80;3.97;;;;;;;25.49;62.12;97830.94;4892060;29;20080;-73
2023/08/26 10:33:03;;;;;;;9.93;4.47;;;;;;;25.47;60.25;97828.53;4891876;29;20060;-72
2023/08/26 10:35:28;;;;;;;8.02;4.40;;;;;;;25.68;61.20;97829.16;4892124;29;20112;-73
2023/08/26 10:38:14;;;;;;;6.55;4.38;;;;;;;25.59;60.29;97809.19;4876421;29;20032;-73
2023/08/26 10:40:39;;;;;;;8.30;4.32;;;;;;;25.92;60.45;97811.69;4877784;29;20032;-71
2023/08/26 10:43:07;;;;;;;11.77;4.25;;;;;;;26.26;60.43;97815.72;4876165;29;20515;-73
2023/08/26 10:45:32;;;;;;;6.47;4.22;;;;;;;26.25;59.29;97814.16;4891963;29;20463;-72
2023/08/26 10:47:59;;;;;;;7.82;4.25;;;;;;;26.13;59.36;97797.66;4891929;29;20060;-72
2023/08/26 10:50:26;;;;;;;6.88;3.92;;;;;;;26.08;56.90;97810.53;4891576;29;20045;-72
2023/08/26 10:52:59;;;;;;;7.47;3.80;;;;;;;25.79;56.86;97802.66;4875340;29;20077;-73
2023/08/26 10:55:32;;;;;;;6.97;3.88;;;;;;;25.75;56.70;97812.78;4892334;29;20119;-73
2023/08/26 10:58:01;;;;;;;6.10;3.85;;;;;;;25.51;58.15;97812.88;4877775;29;20411;-73
2023/08/26 11:00:27;;;;;;;9.25;4.88;;;;;;;25.39;59.25;97802.69;4877822;29;20115;-73
2023/08/26 11:02:54;;;;;;;7.57;4.43;;;;;;;25.43;59.02;97819.34;4880962;29;20107;-74
2023/08/26 11:05:20;;;;;;;8.50;3.92;;;;;;;25.74;59.32;97811.19;4885787;29;20031;-73
2023/08/26 11:07:46;;;;;;;6.97;4.05;;;;;;;25.70;59.01;97815.81;4877445;29;20037;-73
2023/08/26 11:10:28;;;;;;;8.00;3.75;;;;;;;25.33;59.32;97817.06;4891347;29;20080;-73
2023/08/26 11:12:54;;;;;;;7.72;4.00;;;;;;;25.16;59.69;97833.88;4868625;29;20137;-74
2023/08/26 11:15:20;;;;;;;10.40;4.20;;;;;;;25.14;60.10;97841.69;4876043;29;20127;-73
2023/08/26 11:17:47;;;;;;;7.75;3.80;;;;;;;25.10;59.98;97827.00;4891685;29;20041;-73